map of WMAP home
Great Circle Mapper logo
WMAP - Airport
Location
City:  Kluang, Malaysia
ICAO:WMAP

Details
Type:Airport (Aerodrome, Airfield)
Latitude:2°02'29"N (2.041394)
Longitude:103°18'27"E (103.307394)
Datum:WGS 1984
Elevation:150 ft (46 m)
Variation:0.15°E (WMM2015 magnetic declination)
-0.00° annual change
Runways:1
Longest:4101 × 121 ft (1250 × 37 m)

Time
Time Zone:UTC+8
Local Time:

Weather
TAF:WMAP 041100Z 0412/0512 35005KT 9999 FEW024 SCT140 BKN260= TAF WMBT 041100Z 0412/0512 04005KT 9999 FEW018 SCT020 BKN280

Related Locations
Nearby:
Farthest:SEMO: 12431 mi / 20006 km
Montalvo [El Carmen], Los Ríos, EC

Find:

   beyond  
but within

Other Information
Maps:
NOTAMs:
Links:
Sources:

  
flag of Malaysia   

Sectional Chart

Flight Planning
at skyvector.com

Satellite Image

Google Maps Satellite View

 

Copyright © 2004-2015 Karl L. Swartz. All rights reserved.
The Great Circle Mapper name and logo are trademarks of the Great Circle Mapper.
All other trademarks mentioned herein belong to their respective owners.
Please see credits for attibutions and further copyright information.

  Follow gcmap on Facebook Follow gcmap on Twitter Follow gcmap on Google+

hCard Microformat

Geo Microformat